sensor_id;sensor_type;location;lat;lon;timestamp;temperature;humidity
5806;DHT22;2929;50.810;8.342;2022-08-03T00:01:03;17.20;99.90
5806;DHT22;2929;50.810;8.342;2022-08-03T00:03:31;17.30;99.90
5806;DHT22;2929;50.810;8.342;2022-08-03T00:05:58;17.30;99.90
5806;DHT22;2929;50.810;8.342;2022-08-03T00:08:26;17.30;99.90
5806;DHT22;2929;50.810;8.342;2022-08-03T00:10:53;17.30;99.90
5806;DHT22;2929;50.810;8.342;2022-08-03T00:13:21;17.20;99.90
5806;DHT22;2929;50.810;8.342;2022-08-03T00:15:48;17.20;99.90
5806;DHT22;2929;50.810;8.342;2022-08-03T00:18:15;17.10;99.90
5806;DHT22;2929;50.810;8.342;2022-08-03T00:20:42;16.80;99.90
5806;DHT22;2929;50.810;8.342;2022-08-03T00:23:10;16.60;99.90
5806;DHT22;2929;50.810;8.342;2022-08-03T00:25:37;16.50;99.90
5806;DHT22;2929;50.810;8.342;2022-08-03T00:28:04;16.40;99.90
5806;DHT22;2929;50.810;8.342;2022-08-03T00:30:33;16.40;99.90
5806;DHT22;2929;50.810;8.342;2022-08-03T00:33:01;16.30;99.90
5806;DHT22;2929;50.810;8.342;2022-08-03T00:35:29;16.20;99.90
5806;DHT22;2929;50.810;8.342;2022-08-03T00:37:56;16.20;99.90
5806;DHT22;2929;50.810;8.342;2022-08-03T00:40:23;16.20;99.90
5806;DHT22;2929;50.810;8.342;2022-08-03T00:42:52;16.30;99.90
5806;DHT22;2929;50.810;8.342;2022-08-03T00:45:20;16.30;99.90
5806;DHT22;2929;50.810;8.342;2022-08-03T00:47:49;16.30;99.90
5806;DHT22;2929;50.810;8.342;2022-08-03T00:50:17;16.20;99.90
5806;DHT22;2929;50.810;8.342;2022-08-03T00:52:45;16.10;99.90
5806;DHT22;2929;50.810;8.342;2022-08-03T00:55:13;16.10;99.90
5806;DHT22;2929;50.810;8.342;2022-08-03T00:57:41;16.10;99.90
5806;DHT22;2929;50.810;8.342;2022-08-03T01:00:11;16.20;99.90
5806;DHT22;2929;50.810;8.342;2022-08-03T01:02:38;16.10;99.90
5806;DHT22;2929;50.810;8.342;2022-08-03T01:05:07;16.20;99.90
5806;DHT22;2929;50.810;8.342;2022-08-03T01:07:41;16.20;99.90
5806;DHT22;2929;50.810;8.342;2022-08-03T01:10:16;16.20;99.90
5806;DHT22;2929;50.810;8.342;2022-08-03T01:12:56;16.00;99.90
5806;DHT22;2929;50.810;8.342;2022-08-03T01:15:30;15.90;99.90
5806;DHT22;2929;50.810;8.342;2022-08-03T01:18:07;15.90;99.90
5806;DHT22;2929;50.810;8.342;2022-08-03T01:20:39;16.00;99.90
5806;DHT22;2929;50.810;8.342;2022-08-03T01:29:39;15.60;99.90
5806;DHT22;2929;50.810;8.342;2022-08-03T01:32:17;15.60;99.90
5806;DHT22;2929;50.810;8.342;2022-08-03T01:34:50;15.70;99.90
5806;DHT22;2929;50.810;8.342;2022-08-03T01:37:23;15.80;99.90
5806;DHT22;2929;50.810;8.342;2022-08-03T01:39:54;15.80;99.90
5806;DHT22;2929;50.810;8.342;2022-08-03T01:42:23;15.80;99.90
5806;DHT22;2929;50.810;8.342;2022-08-03T01:44:53;15.80;99.90
5806;DHT22;2929;50.810;8.342;2022-08-03T01:47:23;15.80;99.90
5806;DHT22;2929;50.810;8.342;2022-08-03T01:49:51;15.90;99.90
5806;DHT22;2929;50.810;8.342;2022-08-03T01:52:20;16.00;99.90
5806;DHT22;2929;50.810;8.342;2022-08-03T01:54:50;16.00;99.90
5806;DHT22;2929;50.810;8.342;2022-08-03T01:57:18;16.00;99.90
5806;DHT22;2929;50.810;8.342;2022-08-03T01:59:47;16.00;99.90
5806;DHT22;2929;50.810;8.342;2022-08-03T02:02:16;16.10;99.90
5806;DHT22;2929;50.810;8.342;2022-08-03T02:04:44;16.00;99.90
5806;DHT22;2929;50.810;8.342;2022-08-03T02:07:13;16.00;99.90
5806;DHT22;2929;50.810;8.342;2022-08-03T02:09:43;16.00;99.90
5806;DHT22;2929;50.810;8.342;2022-08-03T02:12:11;15.90;99.90
5806;DHT22;2929;50.810;8.342;2022-08-03T02:14:41;15.70;99.90
5806;DHT22;2929;50.810;8.342;2022-08-03T02:17:09;15.70;99.90
5806;DHT22;2929;50.810;8.342;2022-08-03T02:19:39;15.60;99.90
5806;DHT22;2929;50.810;8.342;2022-08-03T02:22:10;15.50;99.90
5806;DHT22;2929;50.810;8.342;2022-08-03T02:24:38;15.50;99.90
5806;DHT22;2929;50.810;8.342;2022-08-03T02:27:12;15.50;99.90
5806;DHT22;2929;50.810;8.342;2022-08-03T02:29:44;15.60;99.90
5806;DHT22;2929;50.810;8.342;2022-08-03T02:32:16;15.70;99.90
5806;DHT22;2929;50.810;8.342;2022-08-03T02:34:50;15.60;99.90
5806;DHT22;2929;50.810;8.342;2022-08-03T02:37:18;15.30;99.90
5806;DHT22;2929;50.810;8.342;2022-08-03T02:39:46;15.20;99.90
5806;DHT22;2929;50.810;8.342;2022-08-03T02:42:14;15.20;99.90
5806;DHT22;2929;50.810;8.342;2022-08-03T02:44:45;15.10;99.90
5806;DHT22;2929;50.810;8.342;2022-08-03T02:47:14;14.90;99.90
5806;DHT22;2929;50.810;8.342;2022-08-03T02:49:48;14.80;99.90
5806;DHT22;2929;50.810;8.342;2022-08-03T02:52:16;14.80;99.90
5806;DHT22;2929;50.810;8.342;2022-08-03T02:54:45;14.90;99.90
5806;DHT22;2929;50.810;8.342;2022-08-03T02:57:14;14.80;99.90
5806;DHT22;2929;50.810;8.342;2022-08-03T02:59:44;14.80;99.90
5806;DHT22;2929;50.810;8.342;2022-08-03T03:02:14;14.90;99.90
5806;DHT22;2929;50.810;8.342;2022-08-03T03:04:42;14.90;99.90
5806;DHT22;2929;50.810;8.342;2022-08-03T03:07:12;14.80;99.90
5806;DHT22;2929;50.810;8.342;2022-08-03T03:09:40;14.60;99.90
5806;DHT22;2929;50.810;8.342;2022-08-03T03:12:09;14.50;99.90
5806;DHT22;2929;50.810;8.342;2022-08-03T03:14:38;14.50;99.90
5806;DHT22;2929;50.810;8.342;2022-08-03T03:17:06;14.40;99.90
5806;DHT22;2929;50.810;8.342;2022-08-03T03:19:34;14.40;99.90
5806;DHT22;2929;50.810;8.342;2022-08-03T03:22:03;14.40;99.90
5806;DHT22;2929;50.810;8.342;2022-08-03T03:24:34;14.50;99.90
5806;DHT22;2929;50.810;8.342;2022-08-03T03:27:02;14.50;99.90
5806;DHT22;2929;50.810;8.342;2022-08-03T03:29:29;14.40;99.90
5806;DHT22;2929;50.810;8.342;2022-08-03T03:31:58;14.40;99.90
5806;DHT22;2929;50.810;8.342;2022-08-03T03:34:25;14.50;99.90
5806;DHT22;2929;50.810;8.342;2022-08-03T03:36:54;14.50;99.90
5806;DHT22;2929;50.810;8.342;2022-08-03T03:39:21;14.40;99.90
5806;DHT22;2929;50.810;8.342;2022-08-03T03:41:50;14.30;99.90
5806;DHT22;2929;50.810;8.342;2022-08-03T03:44:17;14.30;99.90
5806;DHT22;2929;50.810;8.342;2022-08-03T03:46:44;14.40;99.90
5806;DHT22;2929;50.810;8.342;2022-08-03T03:49:11;14.40;99.90
5806;DHT22;2929;50.810;8.342;2022-08-03T03:51:38;14.30;99.90
5806;DHT22;2929;50.810;8.342;2022-08-03T03:54:05;14.30;99.90
5806;DHT22;2929;50.810;8.342;2022-08-03T03:56:32;14.30;99.90
5806;DHT22;2929;50.810;8.342;2022-08-03T03:59:01;14.30;99.90
5806;DHT22;2929;50.810;8.342;2022-08-03T04:01:28;14.40;99.90
5806;DHT22;2929;50.810;8.342;2022-08-03T04:03:56;14.40;99.90
5806;DHT22;2929;50.810;8.342;2022-08-03T04:06:43;14.40;99.90
5806;DHT22;2929;50.810;8.342;2022-08-03T04:09:28;14.30;99.90
5806;DHT22;2929;50.810;8.342;2022-08-03T04:12:13;14.30;99.90
5806;DHT22;2929;50.810;8.342;2022-08-03T04:14:43;14.30;99.90
5806;DHT22;2929;50.810;8.342;2022-08-03T04:17:12;14.40;99.90
5806;DHT22;2929;50.810;8.342;2022-08-03T04:19:43;14.50;99.90
5806;DHT22;2929;50.810;8.342;2022-08-03T04:22:14;14.40;99.90
5806;DHT22;2929;50.810;8.342;2022-08-03T04:24:47;14.40;99.90
5806;DHT22;2929;50.810;8.342;2022-08-03T04:27:18;14.50;99.90
5806;DHT22;2929;50.810;8.342;2022-08-03T04:29:50;14.30;99.90
5806;DHT22;2929;50.810;8.342;2022-08-03T04:32:19;14.20;99.90
5806;DHT22;2929;50.810;8.342;2022-08-03T04:34:50;14.20;99.90
5806;DHT22;2929;50.810;8.342;2022-08-03T04:37:23;14.30;99.90
5806;DHT22;2929;50.810;8.342;2022-08-03T04:39:53;14.30;99.90
5806;DHT22;2929;50.810;8.342;2022-08-03T04:42:21;14.30;99.90
5806;DHT22;2929;50.810;8.342;2022-08-03T04:44:50;14.40;99.90
5806;DHT22;2929;50.810;8.342;2022-08-03T04:47:19;14.60;99.90
5806;DHT22;2929;50.810;8.342;2022-08-03T04:49:46;14.70;99.90
5806;DHT22;2929;50.810;8.342;2022-08-03T04:52:14;14.80;99.90
5806;DHT22;2929;50.810;8.342;2022-08-03T04:54:41;14.80;99.90
5806;DHT22;2929;50.810;8.342;2022-08-03T04:57:09;14.80;99.90
5806;DHT22;2929;50.810;8.342;2022-08-03T04:59:36;14.80;99.90
5806;DHT22;2929;50.810;8.342;2022-08-03T05:02:04;14.70;99.90
5806;DHT22;2929;50.810;8.342;2022-08-03T05:04:32;14.80;99.90
5806;DHT22;2929;50.810;8.342;2022-08-03T05:06:59;14.80;99.90
5806;DHT22;2929;50.810;8.342;2022-08-03T05:09:26;14.80;99.90
5806;DHT22;2929;50.810;8.342;2022-08-03T05:11:53;14.90;99.90
5806;DHT22;2929;50.810;8.342;2022-08-03T05:14:20;14.80;99.90
5806;DHT22;2929;50.810;8.342;2022-08-03T05:16:47;14.80;99.90
5806;DHT22;2929;50.810;8.342;2022-08-03T05:19:16;14.80;99.90
5806;DHT22;2929;50.810;8.342;2022-08-03T05:21:43;14.80;99.90
5806;DHT22;2929;50.810;8.342;2022-08-03T05:24:11;14.90;99.90
5806;DHT22;2929;50.810;8.342;2022-08-03T05:26:38;15.00;99.90
5806;DHT22;2929;50.810;8.342;2022-08-03T05:29:05;15.10;99.90
5806;DHT22;2929;50.810;8.342;2022-08-03T05:31:32;15.20;99.90
5806;DHT22;2929;50.810;8.342;2022-08-03T05:33:59;15.20;99.90
5806;DHT22;2929;50.810;8.342;2022-08-03T05:36:27;15.40;99.90
5806;DHT22;2929;50.810;8.342;2022-08-03T05:38:54;15.40;99.90
5806;DHT22;2929;50.810;8.342;2022-08-03T05:41:21;15.50;99.90
5806;DHT22;2929;50.810;8.342;2022-08-03T05:43:48;15.60;99.90
5806;DHT22;2929;50.810;8.342;2022-08-03T05:46:16;15.70;99.90
5806;DHT22;2929;50.810;8.342;2022-08-03T05:48:43;15.70;99.90
5806;DHT22;2929;50.810;8.342;2022-08-03T05:51:11;15.90;99.90
5806;DHT22;2929;50.810;8.342;2022-08-03T05:53:40;16.00;99.90
5806;DHT22;2929;50.810;8.342;2022-08-03T05:56:07;16.10;99.90
5806;DHT22;2929;50.810;8.342;2022-08-03T05:58:34;16.20;99.90
5806;DHT22;2929;50.810;8.342;2022-08-03T06:01:01;16.30;99.90
5806;DHT22;2929;50.810;8.342;2022-08-03T06:03:28;16.40;99.90
5806;DHT22;2929;50.810;8.342;2022-08-03T06:05:55;16.50;99.90
5806;DHT22;2929;50.810;8.342;2022-08-03T06:08:23;16.60;99.90
5806;DHT22;2929;50.810;8.342;2022-08-03T06:10:51;16.70;99.90
5806;DHT22;2929;50.810;8.342;2022-08-03T06:13:18;16.70;99.90
5806;DHT22;2929;50.810;8.342;2022-08-03T06:15:45;16.80;99.90
5806;DHT22;2929;50.810;8.342;2022-08-03T06:18:12;16.80;99.90
5806;DHT22;2929;50.810;8.342;2022-08-03T06:20:39;17.00;99.90
5806;DHT22;2929;50.810;8.342;2022-08-03T06:23:06;17.10;99.90
5806;DHT22;2929;50.810;8.342;2022-08-03T06:25:33;17.20;99.90
5806;DHT22;2929;50.810;8.342;2022-08-03T06:28:02;17.30;99.90
5806;DHT22;2929;50.810;8.342;2022-08-03T06:30:30;17.50;99.90
5806;DHT22;2929;50.810;8.342;2022-08-03T06:32:57;17.70;99.90
5806;DHT22;2929;50.810;8.342;2022-08-03T06:35:24;17.70;99.90
5806;DHT22;2929;50.810;8.342;2022-08-03T06:37:52;17.80;99.90
5806;DHT22;2929;50.810;8.342;2022-08-03T06:40:21;17.80;99.90
5806;DHT22;2929;50.810;8.342;2022-08-03T06:42:54;17.80;99.90
5806;DHT22;2929;50.810;8.342;2022-08-03T06:45:23;17.90;99.90
5806;DHT22;2929;50.810;8.342;2022-08-03T06:47:59;18.00;99.90
5806;DHT22;2929;50.810;8.342;2022-08-03T06:50:27;18.20;99.90
5806;DHT22;2929;50.810;8.342;2022-08-03T06:52:55;18.30;99.90
5806;DHT22;2929;50.810;8.342;2022-08-03T06:55:22;18.40;99.90
5806;DHT22;2929;50.810;8.342;2022-08-03T06:57:49;18.50;99.90
5806;DHT22;2929;50.810;8.342;2022-08-03T07:00:16;18.70;99.90
5806;DHT22;2929;50.810;8.342;2022-08-03T07:02:45;18.80;99.90
5806;DHT22;2929;50.810;8.342;2022-08-03T07:05:12;19.00;99.90
5806;DHT22;2929;50.810;8.342;2022-08-03T07:07:40;19.10;99.90
5806;DHT22;2929;50.810;8.342;2022-08-03T07:10:08;19.30;99.90
5806;DHT22;2929;50.810;8.342;2022-08-03T07:12:36;19.40;99.90
5806;DHT22;2929;50.810;8.342;2022-08-03T07:15:06;19.50;99.90
5806;DHT22;2929;50.810;8.342;2022-08-03T07:17:34;19.50;99.90
5806;DHT22;2929;50.810;8.342;2022-08-03T07:20:05;19.70;99.90
5806;DHT22;2929;50.810;8.342;2022-08-03T07:22:32;19.80;99.90
5806;DHT22;2929;50.810;8.342;2022-08-03T07:24:59;19.90;99.90
5806;DHT22;2929;50.810;8.342;2022-08-03T07:27:27;20.00;99.90
5806;DHT22;2929;50.810;8.342;2022-08-03T07:29:55;20.20;99.90
5806;DHT22;2929;50.810;8.342;2022-08-03T07:32:23;20.20;99.90
5806;DHT22;2929;50.810;8.342;2022-08-03T07:34:50;20.20;99.90
5806;DHT22;2929;50.810;8.342;2022-08-03T07:37:18;20.30;99.90
5806;DHT22;2929;50.810;8.342;2022-08-03T07:39:45;20.40;99.90
5806;DHT22;2929;50.810;8.342;2022-08-03T07:42:13;20.50;99.90
5806;DHT22;2929;50.810;8.342;2022-08-03T07:44:40;20.60;99.90
5806;DHT22;2929;50.810;8.342;2022-08-03T07:47:07;20.90;99.90
5806;DHT22;2929;50.810;8.342;2022-08-03T07:49:38;21.10;99.90
5806;DHT22;2929;50.810;8.342;2022-08-03T07:52:05;21.10;99.90
5806;DHT22;2929;50.810;8.342;2022-08-03T07:54:51;21.20;99.90
5806;DHT22;2929;50.810;8.342;2022-08-03T07:57:18;21.40;99.90
5806;DHT22;2929;50.810;8.342;2022-08-03T07:59:45;21.40;99.90
5806;DHT22;2929;50.810;8.342;2022-08-03T08:02:13;21.50;99.90
5806;DHT22;2929;50.810;8.342;2022-08-03T08:04:40;21.50;99.90
5806;DHT22;2929;50.810;8.342;2022-08-03T08:07:07;21.60;99.90
5806;DHT22;2929;50.810;8.342;2022-08-03T08:09:34;21.70;99.90
5806;DHT22;2929;50.810;8.342;2022-08-03T08:12:03;21.80;99.90
5806;DHT22;2929;50.810;8.342;2022-08-03T08:14:30;21.90;99.90
5806;DHT22;2929;50.810;8.342;2022-08-03T08:16:57;21.90;99.90
5806;DHT22;2929;50.810;8.342;2022-08-03T08:19:24;22.00;99.90
5806;DHT22;2929;50.810;8.342;2022-08-03T08:21:51;22.20;99.90
5806;DHT22;2929;50.810;8.342;2022-08-03T08:24:18;22.50;99.90
5806;DHT22;2929;50.810;8.342;2022-08-03T08:26:45;22.40;99.90
5806;DHT22;2929;50.810;8.342;2022-08-03T08:29:14;22.50;99.90
5806;DHT22;2929;50.810;8.342;2022-08-03T08:31:41;22.80;99.90
5806;DHT22;2929;50.810;8.342;2022-08-03T08:34:08;23.10;99.90
5806;DHT22;2929;50.810;8.342;2022-08-03T08:36:35;23.20;99.90
5806;DHT22;2929;50.810;8.342;2022-08-03T08:39:03;23.40;99.90
5806;DHT22;2929;50.810;8.342;2022-08-03T08:41:30;23.40;99.90
5806;DHT22;2929;50.810;8.342;2022-08-03T08:43:59;23.60;99.90
5806;DHT22;2929;50.810;8.342;2022-08-03T08:46:29;23.70;99.90
5806;DHT22;2929;50.810;8.342;2022-08-03T08:48:58;23.70;99.90
5806;DHT22;2929;50.810;8.342;2022-08-03T08:51:28;23.90;99.90
5806;DHT22;2929;50.810;8.342;2022-08-03T08:53:57;24.00;99.90
5806;DHT22;2929;50.810;8.342;2022-08-03T08:56:27;24.00;99.90
5806;DHT22;2929;50.810;8.342;2022-08-03T08:58:57;24.10;99.90
5806;DHT22;2929;50.810;8.342;2022-08-03T09:01:24;24.20;99.90
5806;DHT22;2929;50.810;8.342;2022-08-03T09:03:53;24.40;99.90
5806;DHT22;2929;50.810;8.342;2022-08-03T09:06:20;24.60;99.80
5806;DHT22;2929;50.810;8.342;2022-08-03T09:08:48;24.80;99.90
5806;DHT22;2929;50.810;8.342;2022-08-03T09:11:15;24.90;99.90
5806;DHT22;2929;50.810;8.342;2022-08-03T09:13:42;25.00;99.90
5806;DHT22;2929;50.810;8.342;2022-08-03T09:16:11;24.90;99.70
5806;DHT22;2929;50.810;8.342;2022-08-03T09:18:39;25.00;98.90
5806;DHT22;2929;50.810;8.342;2022-08-03T09:21:19;25.10;99.90
5806;DHT22;2929;50.810;8.342;2022-08-03T09:23:48;25.40;98.60
5806;DHT22;2929;50.810;8.342;2022-08-03T09:26:19;25.50;98.40
5806;DHT22;2929;50.810;8.342;2022-08-03T09:28:54;25.60;96.80
5806;DHT22;2929;50.810;8.342;2022-08-03T09:31:29;25.70;97.90
5806;DHT22;2929;50.810;8.342;2022-08-03T09:33:57;25.70;97.20
5806;DHT22;2929;50.810;8.342;2022-08-03T09:36:41;25.70;97.00
5806;DHT22;2929;50.810;8.342;2022-08-03T09:39:10;25.50;97.20
5806;DHT22;2929;50.810;8.342;2022-08-03T09:41:38;25.60;99.30
5806;DHT22;2929;50.810;8.342;2022-08-03T09:44:06;25.60;97.10
5806;DHT22;2929;50.810;8.342;2022-08-03T09:46:47;26.00;97.10
5806;DHT22;2929;50.810;8.342;2022-08-03T09:49:15;26.00;98.30
5806;DHT22;2929;50.810;8.342;2022-08-03T09:51:44;25.90;97.20
5806;DHT22;2929;50.810;8.342;2022-08-03T09:54:11;26.10;95.00
5806;DHT22;2929;50.810;8.342;2022-08-03T09:56:43;26.10;95.30
5806;DHT22;2929;50.810;8.342;2022-08-03T09:59:11;25.90;95.30
5806;DHT22;2929;50.810;8.342;2022-08-03T10:01:39;25.70;96.70
5806;DHT22;2929;50.810;8.342;2022-08-03T10:04:12;26.00;97.10
5806;DHT22;2929;50.810;8.342;2022-08-03T10:06:44;26.20;96.20
5806;DHT22;2929;50.810;8.342;2022-08-03T10:09:14;26.10;95.50
5806;DHT22;2929;50.810;8.342;2022-08-03T10:11:43;26.30;97.40
5806;DHT22;2929;50.810;8.342;2022-08-03T10:14:12;26.70;95.70
5806;DHT22;2929;50.810;8.342;2022-08-03T10:16:44;26.90;94.10
5806;DHT22;2929;50.810;8.342;2022-08-03T10:19:12;27.00;93.40
5806;DHT22;2929;50.810;8.342;2022-08-03T10:21:45;27.00;95.70
5806;DHT22;2929;50.810;8.342;2022-08-03T10:24:16;27.00;97.10
5806;DHT22;2929;50.810;8.342;2022-08-03T10:26:46;27.50;93.80
5806;DHT22;2929;50.810;8.342;2022-08-03T10:29:19;27.60;92.90
5806;DHT22;2929;50.810;8.342;2022-08-03T10:31:47;27.60;93.20
5806;DHT22;2929;50.810;8.342;2022-08-03T10:34:18;27.60;93.30
5806;DHT22;2929;50.810;8.342;2022-08-03T10:36:48;27.30;91.90
5806;DHT22;2929;50.810;8.342;2022-08-03T10:39:21;27.50;92.20
5806;DHT22;2929;50.810;8.342;2022-08-03T10:41:49;27.80;92.40
5806;DHT22;2929;50.810;8.342;2022-08-03T10:44:20;28.10;91.80
5806;DHT22;2929;50.810;8.342;2022-08-03T10:46:50;28.40;92.40
5806;DHT22;2929;50.810;8.342;2022-08-03T10:49:18;28.40;93.00
5806;DHT22;2929;50.810;8.342;2022-08-03T10:51:46;28.40;90.50
5806;DHT22;2929;50.810;8.342;2022-08-03T10:54:42;28.60;90.50
5806;DHT22;2929;50.810;8.342;2022-08-03T10:57:49;28.70;91.10
5806;DHT22;2929;50.810;8.342;2022-08-03T11:00:18;28.90;91.30
5806;DHT22;2929;50.810;8.342;2022-08-03T11:03:16;28.90;90.40
5806;DHT22;2929;50.810;8.342;2022-08-03T11:05:45;29.10;90.50
5806;DHT22;2929;50.810;8.342;2022-08-03T11:08:24;29.20;91.80
5806;DHT22;2929;50.810;8.342;2022-08-03T11:10:56;29.40;92.20
5806;DHT22;2929;50.810;8.342;2022-08-03T11:13:26;29.50;90.70
5806;DHT22;2929;50.810;8.342;2022-08-03T11:15:57;29.60;88.60
5806;DHT22;2929;50.810;8.342;2022-08-03T11:18:24;29.80;86.00
5806;DHT22;2929;50.810;8.342;2022-08-03T11:20:53;29.80;87.00
5806;DHT22;2929;50.810;8.342;2022-08-03T11:23:39;29.80;86.20
5806;DHT22;2929;50.810;8.342;2022-08-03T11:26:15;30.00;86.00
5806;DHT22;2929;50.810;8.342;2022-08-03T11:28:44;30.40;84.60
5806;DHT22;2929;50.810;8.342;2022-08-03T11:31:43;30.50;83.20
5806;DHT22;2929;50.810;8.342;2022-08-03T11:34:13;30.40;81.20
5806;DHT22;2929;50.810;8.342;2022-08-03T11:37:21;30.50;82.60
5806;DHT22;2929;50.810;8.342;2022-08-03T11:39:52;30.70;81.10
5806;DHT22;2929;50.810;8.342;2022-08-03T11:42:42;31.10;81.20
5806;DHT22;2929;50.810;8.342;2022-08-03T11:45:11;31.10;80.30
5806;DHT22;2929;50.810;8.342;2022-08-03T11:47:40;31.20;80.60
5806;DHT22;2929;50.810;8.342;2022-08-03T11:50:09;31.60;81.70
5806;DHT22;2929;50.810;8.342;2022-08-03T11:52:38;31.70;78.00
5806;DHT22;2929;50.810;8.342;2022-08-03T11:55:11;31.60;78.40
5806;DHT22;2929;50.810;8.342;2022-08-03T11:57:39;31.60;76.10
5806;DHT22;2929;50.810;8.342;2022-08-03T12:00:22;31.10;79.00
5806;DHT22;2929;50.810;8.342;2022-08-03T12:03:02;31.10;77.20
5806;DHT22;2929;50.810;8.342;2022-08-03T12:05:45;31.80;76.20
5806;DHT22;2929;50.810;8.342;2022-08-03T12:08:13;32.50;77.40
5806;DHT22;2929;50.810;8.342;2022-08-03T12:10:46;32.70;74.40
5806;DHT22;2929;50.810;8.342;2022-08-03T12:13:16;33.30;73.30
5806;DHT22;2929;50.810;8.342;2022-08-03T12:15:43;33.70;73.90
5806;DHT22;2929;50.810;8.342;2022-08-03T12:18:17;33.80;70.90
5806;DHT22;2929;50.810;8.342;2022-08-03T12:20:46;34.20;70.00
5806;DHT22;2929;50.810;8.342;2022-08-03T12:23:13;34.30;70.70
5806;DHT22;2929;50.810;8.342;2022-08-03T12:25:42;34.60;67.20
5806;DHT22;2929;50.810;8.342;2022-08-03T12:28:17;34.90;66.90
5806;DHT22;2929;50.810;8.342;2022-08-03T12:30:50;34.60;65.70
5806;DHT22;2929;50.810;8.342;2022-08-03T12:33:20;34.60;66.80
5806;DHT22;2929;50.810;8.342;2022-08-03T12:35:50;34.70;68.70
5806;DHT22;2929;50.810;8.342;2022-08-03T12:38:26;34.20;65.90
5806;DHT22;2929;50.810;8.342;2022-08-03T12:40:56;34.60;66.50
5806;DHT22;2929;50.810;8.342;2022-08-03T12:43:24;34.60;66.10
5806;DHT22;2929;50.810;8.342;2022-08-03T12:46:10;34.70;66.80
5806;DHT22;2929;50.810;8.342;2022-08-03T12:49:06;34.90;65.20
5806;DHT22;2929;50.810;8.342;2022-08-03T12:51:37;34.70;67.00
5806;DHT22;2929;50.810;8.342;2022-08-03T12:54:04;34.90;66.60
5806;DHT22;2929;50.810;8.342;2022-08-03T12:56:32;34.80;64.10
5806;DHT22;2929;50.810;8.342;2022-08-03T12:59:22;35.10;64.00
5806;DHT22;2929;50.810;8.342;2022-08-03T13:01:47;35.20;61.40
5806;DHT22;2929;50.810;8.342;2022-08-03T13:04:24;35.30;65.90
5806;DHT22;2929;50.810;8.342;2022-08-03T13:06:56;35.30;65.10
5806;DHT22;2929;50.810;8.342;2022-08-03T13:09:24;35.00;64.00
5806;DHT22;2929;50.810;8.342;2022-08-03T13:12:07;35.10;68.40
5806;DHT22;2929;50.810;8.342;2022-08-03T13:14:36;34.90;63.40
5806;DHT22;2929;50.810;8.342;2022-08-03T13:17:03;34.90;63.70
5806;DHT22;2929;50.810;8.342;2022-08-03T13:19:31;35.10;62.40
5806;DHT22;2929;50.810;8.342;2022-08-03T13:21:58;35.20;62.10
5806;DHT22;2929;50.810;8.342;2022-08-03T13:24:26;35.50;65.00
5806;DHT22;2929;50.810;8.342;2022-08-03T13:26:53;35.70;62.60
5806;DHT22;2929;50.810;8.342;2022-08-03T13:29:20;35.50;62.50
5806;DHT22;2929;50.810;8.342;2022-08-03T13:31:48;35.50;60.60
5806;DHT22;2929;50.810;8.342;2022-08-03T13:34:15;35.70;62.90
5806;DHT22;2929;50.810;8.342;2022-08-03T13:36:43;35.70;60.00
5806;DHT22;2929;50.810;8.342;2022-08-03T13:39:10;35.80;59.50
5806;DHT22;2929;50.810;8.342;2022-08-03T13:41:38;36.20;60.90
5806;DHT22;2929;50.810;8.342;2022-08-03T13:44:05;36.20;59.10
5806;DHT22;2929;50.810;8.342;2022-08-03T13:46:32;36.30;58.80
5806;DHT22;2929;50.810;8.342;2022-08-03T13:49:01;36.60;59.70
5806;DHT22;2929;50.810;8.342;2022-08-03T13:51:29;36.50;57.90
5806;DHT22;2929;50.810;8.342;2022-08-03T13:53:56;36.40;59.10
5806;DHT22;2929;50.810;8.342;2022-08-03T13:56:24;36.60;57.10
5806;DHT22;2929;50.810;8.342;2022-08-03T13:58:51;36.60;57.50
5806;DHT22;2929;50.810;8.342;2022-08-03T14:01:18;36.90;57.50
5806;DHT22;2929;50.810;8.342;2022-08-03T14:03:46;37.00;55.80
5806;DHT22;2929;50.810;8.342;2022-08-03T14:06:16;36.60;56.80
5806;DHT22;2929;50.810;8.342;2022-08-03T14:08:44;36.80;55.60
5806;DHT22;2929;50.810;8.342;2022-08-03T14:11:13;36.80;56.00
5806;DHT22;2929;50.810;8.342;2022-08-03T14:13:43;36.90;55.80
5806;DHT22;2929;50.810;8.342;2022-08-03T14:16:12;37.20;55.10
5806;DHT22;2929;50.810;8.342;2022-08-03T14:18:40;37.30;55.70
5806;DHT22;2929;50.810;8.342;2022-08-03T14:21:08;36.90;58.20
5806;DHT22;2929;50.810;8.342;2022-08-03T14:23:36;36.40;59.40
5806;DHT22;2929;50.810;8.342;2022-08-03T14:26:04;36.40;55.80
5806;DHT22;2929;50.810;8.342;2022-08-03T14:28:31;36.90;58.70
5806;DHT22;2929;50.810;8.342;2022-08-03T14:30:59;37.30;58.30
5806;DHT22;2929;50.810;8.342;2022-08-03T14:33:26;37.50;57.50
5806;DHT22;2929;50.810;8.342;2022-08-03T14:35:54;38.00;57.40
5806;DHT22;2929;50.810;8.342;2022-08-03T14:38:21;38.00;55.30
5806;DHT22;2929;50.810;8.342;2022-08-03T14:40:50;37.70;54.60
5806;DHT22;2929;50.810;8.342;2022-08-03T14:43:17;37.50;54.30
5806;DHT22;2929;50.810;8.342;2022-08-03T14:45:46;37.40;55.50
5806;DHT22;2929;50.810;8.342;2022-08-03T14:48:13;37.10;55.40
5806;DHT22;2929;50.810;8.342;2022-08-03T14:50:40;36.80;56.60
5806;DHT22;2929;50.810;8.342;2022-08-03T14:53:07;36.40;56.10
5806;DHT22;2929;50.810;8.342;2022-08-03T14:55:34;36.50;56.90
5806;DHT22;2929;50.810;8.342;2022-08-03T14:58:02;36.80;59.60
5806;DHT22;2929;50.810;8.342;2022-08-03T15:00:30;37.30;56.50
5806;DHT22;2929;50.810;8.342;2022-08-03T15:02:57;37.40;55.50
5806;DHT22;2929;50.810;8.342;2022-08-03T15:05:24;37.20;54.80
5806;DHT22;2929;50.810;8.342;2022-08-03T15:07:51;37.20;56.20
5806;DHT22;2929;50.810;8.342;2022-08-03T15:10:19;37.10;57.10
5806;DHT22;2929;50.810;8.342;2022-08-03T15:12:46;37.00;56.30
5806;DHT22;2929;50.810;8.342;2022-08-03T15:15:14;36.90;55.40
5806;DHT22;2929;50.810;8.342;2022-08-03T15:17:42;37.30;57.00
5806;DHT22;2929;50.810;8.342;2022-08-03T15:20:10;37.60;56.70
5806;DHT22;2929;50.810;8.342;2022-08-03T15:22:38;37.50;55.60
5806;DHT22;2929;50.810;8.342;2022-08-03T15:25:06;37.20;55.90
5806;DHT22;2929;50.810;8.342;2022-08-03T15:27:34;36.70;55.00
5806;DHT22;2929;50.810;8.342;2022-08-03T15:30:01;36.60;55.00
5806;DHT22;2929;50.810;8.342;2022-08-03T15:32:32;36.40;55.20
5806;DHT22;2929;50.810;8.342;2022-08-03T15:35:00;36.20;56.60
5806;DHT22;2929;50.810;8.342;2022-08-03T15:37:28;36.60;56.40
5806;DHT22;2929;50.810;8.342;2022-08-03T15:39:55;36.90;54.70
5806;DHT22;2929;50.810;8.342;2022-08-03T15:42:22;37.20;55.60
5806;DHT22;2929;50.810;8.342;2022-08-03T15:44:49;37.00;54.20
5806;DHT22;2929;50.810;8.342;2022-08-03T15:47:16;36.70;55.80
5806;DHT22;2929;50.810;8.342;2022-08-03T15:49:45;37.00;54.60
5806;DHT22;2929;50.810;8.342;2022-08-03T15:52:13;37.00;53.10
5806;DHT22;2929;50.810;8.342;2022-08-03T15:54:40;36.90;55.80
5806;DHT22;2929;50.810;8.342;2022-08-03T15:57:07;36.60;56.20
5806;DHT22;2929;50.810;8.342;2022-08-03T15:59:34;36.10;56.20
5806;DHT22;2929;50.810;8.342;2022-08-03T16:02:02;36.00;56.30
5806;DHT22;2929;50.810;8.342;2022-08-03T16:04:29;36.00;57.80
5806;DHT22;2929;50.810;8.342;2022-08-03T16:06:58;35.70;57.30
5806;DHT22;2929;50.810;8.342;2022-08-03T16:09:25;35.70;57.20
5806;DHT22;2929;50.810;8.342;2022-08-03T16:11:52;35.90;56.90
5806;DHT22;2929;50.810;8.342;2022-08-03T16:14:19;36.10;54.80
5806;DHT22;2929;50.810;8.342;2022-08-03T16:16:46;36.50;54.10
5806;DHT22;2929;50.810;8.342;2022-08-03T16:19:14;36.70;55.40
5806;DHT22;2929;50.810;8.342;2022-08-03T16:21:41;36.80;53.00
5806;DHT22;2929;50.810;8.342;2022-08-03T16:24:09;36.70;56.90